Airfield :
LOGIN :

Register | Disclaimer

   EN    FR    IT 

 










Legend :    VFR   Marginal VFR   IFR   Intensive IFR   Very Intensive IFR
Visi :
Ceiling :
>= 8 km
>= 3000ft
5 to 8 km
1000 to 3000 ft
1500m to 5 km
500 to 1000 ft
800 to 1500m
200 to 500 ft
< 800m
< 200 ft
Symbols :   Thunderstorms  Fog  Heavy snow  Heavy precipitations  Wind > 20 kt
SIGMETs :     Misc.  Thunderstorms  Icing  Turbulence  Mountain Waves  Volcanic Ashes







- Airport Elevation : 1247 ft
- IATA code : PRG


LKPR - Praha Ruzyne

CURRENT METAR :
  • 300100Z 24003KT CAVOK 19/13 Q1013 NOSIG

EXPIRED METARs :
  • 300030Z 23005KT CAVOK 18/13 Q1014 NOSIG
  • 300000Z 23004KT CAVOK 18/13 Q1014 NOSIG
  • 292330Z 22005KT CAVOK 18/13 Q1014 NOSIG
  • 292300Z 22005KT CAVOK 19/13 Q1013 NOSIG
  • 292230Z 22006KT CAVOK 19/13 Q1014 NOSIG

TAF TAF LKPR
Valid from the 30 at 00:00 until the 31 at 06:00 UTC


292300Z 3000/3106 24006KT CAVOK
TEMPO 3010/3023 9000 SHRA SCT040TCU
PROB30
TEMPO 3013/3021 33014G24KT 4000 TSRA SCT030CB
No reported NOTAMs for that airfield.



MET'MAP, your aeronautical weather chart ! - Copyright ORBIFLY December 2007 - Disclaimer

ORBIFLY MET'MAP TEAM :

Programming & Development : Alexandra Zaïnal
Concept & Development : Baudouin d'Aumeries
Co-Development & Prog : Marc-Olivier Méhu
Technical & hardware support : Manuel Goepfert

Contact : metmap@orbifly.com




SOURCES & CREDITS :

   NOAA